createdAt,value
2023-04-02T00:04:20.315Z,8.91
2023-04-02T00:09:20.245Z,8.94
2023-04-02T00:14:20.185Z,8.71
2023-04-02T00:19:20.095Z,8.55
2023-04-02T00:24:20.040Z,8.68
2023-04-02T00:29:20.009Z,8.38
2023-04-02T00:34:19.929Z,8.37
2023-04-02T00:39:19.899Z,8.56
2023-04-02T00:44:19.861Z,8.22
2023-04-02T00:49:20.791Z,8.43
2023-04-02T00:54:19.831Z,8.34
2023-04-02T00:59:20.718Z,8.01
2023-04-02T01:04:21.629Z,7.89
2023-04-02T01:09:20.593Z,8.23
2023-04-02T01:14:19.485Z,7.92
2023-04-02T01:19:19.570Z,8.22
2023-04-02T01:24:19.443Z,7.52
2023-04-02T01:29:19.351Z,7.55
2023-04-02T01:34:19.304Z,7.75
2023-04-02T01:41:37.627Z,7.71
2023-04-02T01:46:37.658Z,7.31
2023-04-02T01:51:37.477Z,7.23
2023-04-02T01:56:37.477Z,7.48
2023-04-02T02:01:37.417Z,7.63
2023-04-02T02:06:37.360Z,7.48
2023-04-02T02:11:37.285Z,7.45
2023-04-02T02:16:37.211Z,7.27
2023-04-02T02:21:37.152Z,7.39
2023-04-02T02:26:37.204Z,7.25
2023-04-02T02:31:37.107Z,7.37
2023-04-02T02:36:36.982Z,7.42
2023-04-02T02:41:37.057Z,7.03
2023-04-02T02:46:36.919Z,7.09
2023-04-02T02:51:36.899Z,7.17
2023-04-02T02:56:36.807Z,7.39
2023-04-02T03:01:36.883Z,7.03
2023-04-02T03:06:36.855Z,7.07
2023-04-02T03:11:36.726Z,7.15
2023-04-02T03:16:36.624Z,7.02
2023-04-02T03:21:36.613Z,6.97
2023-04-02T03:26:36.540Z,7.12
2023-04-02T03:31:36.474Z,6.84
2023-04-02T03:36:37.382Z,6.66
2023-04-02T03:41:36.337Z,6.74
2023-04-02T03:46:36.322Z,6.66
2023-04-02T03:51:36.245Z,6.70
2023-04-02T03:56:36.345Z,6.94
2023-04-02T04:01:36.169Z,6.52
2023-04-02T04:06:36.070Z,6.71
2023-04-02T04:11:35.984Z,6.48
2023-04-02T04:16:36.063Z,6.98
2023-04-02T04:21:35.883Z,6.61
2023-04-02T04:26:35.795Z,6.55
2023-04-02T04:31:35.777Z,6.41
2023-04-02T04:36:35.816Z,6.54
2023-04-02T04:41:35.712Z,6.48
2023-04-02T04:46:35.653Z,6.18
2023-04-02T04:51:35.627Z,6.28
2023-04-02T04:56:35.569Z,6.40
2023-04-02T05:01:35.602Z,6.43
2023-04-02T05:06:35.495Z,6.14
2023-04-02T05:11:35.397Z,6.03
2023-04-02T05:16:35.358Z,6.17
2023-04-02T05:21:35.318Z,5.96
2023-04-02T05:26:35.278Z,5.76
2023-04-02T05:31:35.201Z,5.94
2023-04-02T05:36:35.044Z,5.97
2023-04-02T05:41:35.162Z,5.67
2023-04-02T05:46:35.023Z,5.97
2023-04-02T05:51:34.911Z,6.14
2023-04-02T05:56:34.872Z,6.04
2023-04-02T06:01:34.898Z,5.86
2023-04-02T06:06:34.716Z,6.03
2023-04-02T06:11:34.730Z,5.75
2023-04-02T06:16:34.644Z,5.86
2023-04-02T06:21:34.668Z,6.01
2023-04-02T06:26:34.505Z,6.08
2023-04-02T06:31:34.453Z,5.79
2023-04-02T06:36:34.395Z,5.93
2023-04-02T06:41:34.368Z,5.78
2023-04-02T06:46:34.390Z,5.75
2023-04-02T06:51:34.412Z,5.61
2023-04-02T06:56:34.332Z,5.68
2023-04-02T07:01:34.181Z,5.75
2023-04-02T07:06:34.096Z,5.67
2023-04-02T07:11:34.670Z,5.82
2023-04-02T07:16:34.257Z,5.81
2023-04-02T07:21:34.105Z,5.46
2023-04-02T07:26:33.908Z,5.71
2023-04-02T07:31:33.947Z,5.53
2023-04-02T07:36:34.123Z,5.51
2023-04-02T07:41:35.456Z,5.57
2023-04-02T07:46:42.492Z,5.79
2023-04-02T07:51:33.507Z,5.83
2023-04-02T07:56:33.444Z,5.83
2023-04-02T08:01:33.370Z,5.56
2023-04-02T08:06:33.384Z,5.72
2023-04-02T08:11:33.356Z,5.79
2023-04-02T08:16:33.301Z,5.72
2023-04-02T08:21:33.159Z,5.97
2023-04-02T08:26:33.100Z,5.86
2023-04-02T08:31:33.050Z,5.85
2023-04-02T08:36:33.006Z,5.67
2023-04-02T08:41:32.968Z,5.93
2023-04-02T08:46:32.971Z,6.14
2023-04-02T08:51:32.865Z,6.04
2023-04-02T08:56:32.769Z,6.11
2023-04-02T09:01:32.774Z,6.38
2023-04-02T09:06:32.680Z,6.00
2023-04-02T09:11:32.643Z,6.19
2023-04-02T09:16:32.628Z,6.19
2023-04-02T09:21:32.615Z,6.21
2023-04-02T09:26:32.516Z,6.52
2023-04-02T09:31:32.459Z,6.51
2023-04-02T09:36:32.441Z,6.37
2023-04-02T09:41:32.371Z,6.80
2023-04-02T09:46:32.323Z,6.71
2023-04-02T09:51:32.196Z,6.76
2023-04-02T09:56:32.175Z,6.36
2023-04-02T10:01:32.195Z,6.62
2023-04-02T10:06:32.075Z,6.46
2023-04-02T10:11:43.742Z,6.58
2023-04-02T10:16:33.349Z,6.87
2023-04-02T10:21:31.887Z,6.58
2023-04-02T10:26:35.299Z,6.52
2023-04-02T10:31:32.797Z,6.92
2023-04-02T10:36:31.744Z,6.89
2023-04-02T10:41:31.672Z,6.79
2023-04-02T10:46:31.637Z,7.05
2023-04-02T10:51:32.974Z,7.13
2023-04-02T10:56:44.188Z,7.12
2023-04-02T11:01:32.598Z,7.02
2023-04-02T11:06:32.359Z,7.07
2023-04-02T11:11:32.194Z,7.17
2023-04-02T11:16:31.345Z,7.07
2023-04-02T11:21:31.235Z,7.12
2023-04-02T11:26:31.190Z,7.35
2023-04-02T11:31:31.186Z,7.64
2023-04-02T11:36:31.145Z,7.85
2023-04-02T11:41:31.054Z,8.05
2023-04-02T11:46:31.035Z,7.95
2023-04-02T11:51:30.945Z,8.00
2023-04-02T11:56:30.858Z,8.41
2023-04-02T12:01:31.815Z,8.08
2023-04-02T12:06:30.857Z,8.04
2023-04-02T12:11:31.692Z,7.77
2023-04-02T12:16:30.782Z,7.95
2023-04-02T12:21:30.599Z,7.80
2023-04-02T12:26:30.522Z,7.61
2023-04-02T12:31:30.489Z,7.58
2023-04-02T12:36:30.375Z,7.55
2023-04-02T12:41:30.527Z,7.71
2023-04-02T12:46:30.495Z,7.49
2023-04-02T12:51:30.240Z,7.55
2023-04-02T12:56:30.155Z,7.58
2023-04-02T13:01:30.148Z,7.68
2023-04-02T13:06:30.075Z,7.77
2023-04-02T13:11:31.069Z,8.02
2023-04-02T13:16:30.063Z,8.04
2023-04-02T13:21:29.868Z,7.86
2023-04-02T13:26:29.831Z,8.53
2023-04-02T13:31:29.849Z,8.41
2023-04-02T13:36:29.797Z,8.11
2023-04-02T13:41:29.707Z,8.43
2023-04-02T13:46:29.623Z,8.30
2023-04-02T13:51:29.650Z,8.68
2023-04-02T13:56:29.520Z,8.58
2023-04-02T14:01:29.556Z,8.61
2023-04-02T14:06:29.462Z,8.73
2023-04-02T14:11:29.344Z,8.91
2023-04-02T14:16:29.400Z,8.94
2023-04-02T14:21:29.281Z,9.56
2023-04-02T14:26:29.146Z,9.53
2023-04-02T14:31:29.122Z,9.51
2023-04-02T14:36:29.104Z,9.66
2023-04-02T14:41:29.037Z,9.75
2023-04-02T14:46:28.949Z,9.46
2023-04-02T14:51:28.844Z,9.51
2023-04-02T14:56:28.864Z,9.01
2023-04-02T15:01:28.789Z,9.10
2023-04-02T15:06:28.747Z,9.14
2023-04-02T15:11:28.647Z,9.53
2023-04-02T15:16:28.650Z,8.96
2023-04-02T15:21:28.553Z,8.81
2023-04-02T15:26:28.561Z,9.01
2023-04-02T15:31:28.479Z,8.98
2023-04-02T15:36:28.483Z,9.08
2023-04-02T15:41:28.454Z,9.69
2023-04-02T15:46:28.495Z,9.64
2023-04-02T15:51:28.209Z,9.47
2023-04-02T15:56:28.166Z,8.86
2023-04-02T16:01:28.136Z,8.99
2023-04-02T16:06:28.134Z,8.74
2023-04-02T16:11:28.020Z,8.74
2023-04-02T16:16:27.977Z,8.74
2023-04-02T16:21:27.888Z,8.73
2023-04-02T16:26:27.855Z,9.11
2023-04-02T16:31:27.842Z,9.46
2023-04-02T16:36:27.796Z,8.92
2023-04-02T16:41:27.671Z,8.71
2023-04-02T16:46:39.005Z,8.99
2023-04-02T16:51:28.548Z,9.10
2023-04-02T16:56:27.513Z,9.02
2023-04-02T17:01:27.470Z,8.77
2023-04-02T17:06:27.427Z,8.45
2023-04-02T17:11:27.346Z,8.08
2023-04-02T17:16:27.309Z,8.05
2023-04-02T17:21:27.219Z,8.07
2023-04-02T17:26:27.225Z,7.89
2023-04-02T17:31:27.135Z,7.58
2023-04-02T17:36:27.041Z,7.86
2023-04-02T17:41:27.030Z,7.58
2023-04-02T17:46:27.056Z,7.48
2023-04-02T17:51:26.944Z,7.50
2023-04-02T17:56:26.855Z,7.46
2023-04-02T18:01:26.796Z,7.24
2023-04-02T18:06:26.724Z,7.07
2023-04-02T18:11:26.671Z,7.10
2023-04-02T18:16:26.649Z,6.94
2023-04-02T18:21:35.498Z,7.23
2023-04-02T18:26:26.607Z,6.66
2023-04-02T18:31:26.680Z,6.85
2023-04-02T18:36:26.460Z,6.59
2023-04-02T18:41:26.446Z,6.58
2023-04-02T18:46:26.390Z,6.49
2023-04-02T18:51:26.337Z,6.40
2023-04-02T18:56:26.250Z,6.25
2023-04-02T19:01:26.323Z,6.14
2023-04-02T19:06:26.150Z,6.00
2023-04-02T19:11:26.085Z,5.90
2023-04-02T19:16:26.215Z,5.83
2023-04-02T19:21:25.951Z,5.75
2023-04-02T19:26:25.926Z,5.58
2023-04-02T19:31:25.936Z,5.43
2023-04-02T19:36:25.834Z,5.20
2023-04-02T19:41:25.753Z,5.13
2023-04-02T19:46:25.697Z,5.06
2023-04-02T19:51:25.609Z,4.89
2023-04-02T19:56:25.586Z,4.80
2023-04-02T20:01:25.606Z,4.72
2023-04-02T20:06:25.449Z,4.67
2023-04-02T20:11:25.406Z,4.66
2023-04-02T20:16:25.358Z,4.52
2023-04-02T20:21:25.355Z,4.36
2023-04-02T20:26:25.266Z,4.26
2023-04-02T20:31:25.228Z,4.11
2023-04-02T20:36:25.216Z,3.98
2023-04-02T20:41:25.117Z,3.93
2023-04-02T20:46:25.103Z,3.76
2023-04-02T20:51:25.082Z,3.68
2023-04-02T20:56:24.934Z,3.62
2023-04-02T21:01:24.971Z,3.57
2023-04-02T21:06:24.808Z,3.42
2023-04-02T21:11:24.797Z,3.33
2023-04-02T21:16:24.715Z,3.32
2023-04-02T21:21:24.659Z,3.31
2023-04-02T21:26:24.593Z,3.23
2023-04-02T21:31:24.593Z,3.05
2023-04-02T21:36:24.496Z,3.06
2023-04-02T21:41:24.498Z,2.99
2023-04-02T21:46:24.416Z,2.99
2023-04-02T21:51:24.408Z,2.96
2023-04-02T21:56:24.332Z,2.89
2023-04-02T22:01:27.679Z,2.78
2023-04-02T22:06:24.186Z,2.77
2023-04-02T22:11:24.136Z,2.77
2023-04-02T22:16:24.155Z,2.71
2023-04-02T22:21:24.025Z,2.61
2023-04-02T22:26:23.932Z,2.57
2023-04-02T22:31:23.930Z,2.52
2023-04-02T22:36:23.846Z,2.52
2023-04-02T22:41:23.822Z,2.31
2023-04-02T22:46:23.778Z,2.46
2023-04-02T22:51:23.663Z,2.36
2023-04-02T22:56:23.594Z,2.35
2023-04-02T23:01:23.604Z,2.30
2023-04-02T23:06:23.530Z,2.28
2023-04-02T23:11:23.499Z,2.17
2023-04-02T23:16:23.515Z,2.20
2023-04-02T23:21:23.381Z,2.10
2023-04-02T23:26:23.363Z,2.14
2023-04-02T23:31:23.302Z,2.05
2023-04-02T23:36:23.221Z,1.98
2023-04-02T23:41:23.161Z,1.87
2023-04-02T23:46:23.223Z,1.84
2023-04-02T23:51:23.029Z,1.95
2023-04-02T23:56:22.993Z,1.86
